sensor_id;sensor_type;location;lat;lon;timestamp;pressure;altitude;pressure_sealevel;temperature;humidity
15229;BME280;7717;47.792;12.076;2022-12-28T00:00:16;97073.25;;;-0.09;100.00
15229;BME280;7717;47.792;12.076;2022-12-28T00:02:41;97073.38;;;-0.22;100.00
15229;BME280;7717;47.792;12.076;2022-12-28T00:05:07;97076.16;;;-0.34;100.00
15229;BME280;7717;47.792;12.076;2022-12-28T00:07:32;97073.44;;;-0.53;100.00
15229;BME280;7717;47.792;12.076;2022-12-28T00:09:58;97076.03;;;-0.52;100.00
15229;BME280;7717;47.792;12.076;2022-12-28T00:12:23;97079.69;;;-0.47;100.00
15229;BME280;7717;47.792;12.076;2022-12-28T00:14:48;97071.66;;;-0.56;100.00
15229;BME280;7717;47.792;12.076;2022-12-28T00:17:14;97078.38;;;-0.55;100.00
15229;BME280;7717;47.792;12.076;2022-12-28T00:19:39;97069.13;;;-0.56;100.00
15229;BME280;7717;47.792;12.076;2022-12-28T00:22:04;97078.66;;;-0.34;100.00
15229;BME280;7717;47.792;12.076;2022-12-28T00:24:30;97087.06;;;-0.33;100.00
15229;BME280;7717;47.792;12.076;2022-12-28T00:26:55;97079.69;;;-0.47;100.00
15229;BME280;7717;47.792;12.076;2022-12-28T00:29:21;97084.63;;;-0.32;100.00
15229;BME280;7717;47.792;12.076;2022-12-28T00:31:47;97078.09;;;-0.45;100.00
15229;BME280;7717;47.792;12.076;2022-12-28T00:34:12;97082.81;;;-0.51;100.00
15229;BME280;7717;47.792;12.076;2022-12-28T00:36:38;97080.91;;;-0.55;100.00
15229;BME280;7717;47.792;12.076;2022-12-28T00:39:03;97079.34;;;-0.53;100.00
15229;BME280;7717;47.792;12.076;2022-12-28T00:41:29;97075.72;;;-0.58;100.00
15229;BME280;7717;47.792;12.076;2022-12-28T00:43:55;97075.50;;;-0.46;100.00
15229;BME280;7717;47.792;12.076;2022-12-28T00:46:20;97066.22;;;-0.64;100.00
15229;BME280;7717;47.792;12.076;2022-12-28T00:48:45;97061.72;;;-0.69;100.00
15229;BME280;7717;47.792;12.076;2022-12-28T00:51:13;97063.88;;;-0.61;100.00
15229;BME280;7717;47.792;12.076;2022-12-28T00:53:39;97075.22;;;-0.67;100.00
15229;BME280;7717;47.792;12.076;2022-12-28T00:56:07;97072.53;;;-0.87;100.00
15229;BME280;7717;47.792;12.076;2022-12-28T00:58:33;97077.41;;;-0.74;100.00
15229;BME280;7717;47.792;12.076;2022-12-28T01:00:58;97080.81;;;-0.57;100.00
15229;BME280;7717;47.792;12.076;2022-12-28T01:03:24;97080.63;;;-0.45;100.00
15229;BME280;7717;47.792;12.076;2022-12-28T01:05:49;97075.84;;;-0.40;100.00
15229;BME280;7717;47.792;12.076;2022-12-28T01:08:14;97077.00;;;-0.33;100.00
15229;BME280;7717;47.792;12.076;2022-12-28T01:10:40;97071.44;;;-0.28;100.00
15229;BME280;7717;47.792;12.076;2022-12-28T01:13:05;97082.19;;;-0.30;100.00
15229;BME280;7717;47.792;12.076;2022-12-28T01:15:30;97075.50;;;-0.46;100.00
15229;BME280;7717;47.792;12.076;2022-12-28T01:17:56;97074.69;;;-0.62;100.00
15229;BME280;7717;47.792;12.076;2022-12-28T01:20:21;97062.22;;;-0.60;100.00
15229;BME280;7717;47.792;12.076;2022-12-28T01:22:46;97069.78;;;-0.75;100.00
15229;BME280;7717;47.792;12.076;2022-12-28T01:25:12;97066.41;;;-0.76;100.00
15229;BME280;7717;47.792;12.076;2022-12-28T01:27:37;97059.44;;;-0.65;100.00
15229;BME280;7717;47.792;12.076;2022-12-28T01:30:04;97057.84;;;-0.79;100.00
15229;BME280;7717;47.792;12.076;2022-12-28T01:32:29;97063.06;;;-0.91;100.00
15229;BME280;7717;47.792;12.076;2022-12-28T01:34:55;97049.34;;;-1.13;100.00
15229;BME280;7717;47.792;12.076;2022-12-28T01:37:20;97061.38;;;-1.07;100.00
15229;BME280;7717;47.792;12.076;2022-12-28T01:39:46;97054.00;;;-0.73;100.00
15229;BME280;7717;47.792;12.076;2022-12-28T01:42:15;97054.41;;;-0.65;100.00
15229;BME280;7717;47.792;12.076;2022-12-28T01:44:43;97040.59;;;-0.73;100.00
15229;BME280;7717;47.792;12.076;2022-12-28T01:47:13;97051.78;;;-0.51;100.00
15229;BME280;7717;47.792;12.076;2022-12-28T01:49:47;97042.53;;;-0.67;100.00
15229;BME280;7717;47.792;12.076;2022-12-28T01:54:53;97039.25;;;-0.83;100.00
15229;BME280;7717;47.792;12.076;2022-12-28T01:57:23;97047.06;;;-0.93;100.00
15229;BME280;7717;47.792;12.076;2022-12-28T01:59:54;97035.50;;;-1.06;100.00
15229;BME280;7717;47.792;12.076;2022-12-28T02:02:21;97042.94;;;-1.07;100.00
15229;BME280;7717;47.792;12.076;2022-12-28T02:04:46;97046.66;;;-1.01;100.00
15229;BME280;7717;47.792;12.076;2022-12-28T02:07:17;97040.44;;;-1.07;100.00
15229;BME280;7717;47.792;12.076;2022-12-28T02:09:45;97036.69;;;-0.99;100.00
15229;BME280;7717;47.792;12.076;2022-12-28T02:12:12;97038.25;;;-1.01;100.00
15229;BME280;7717;47.792;12.076;2022-12-28T02:14:38;97036.78;;;-1.13;100.00
15229;BME280;7717;47.792;12.076;2022-12-28T02:17:06;97042.47;;;-1.00;100.00
15229;BME280;7717;47.792;12.076;2022-12-28T02:19:34;97032.47;;;-0.84;100.00
15229;BME280;7717;47.792;12.076;2022-12-28T02:22:19;97031.22;;;-0.76;100.00
15229;BME280;7717;47.792;12.076;2022-12-28T02:25:04;97021.34;;;-0.73;100.00
15229;BME280;7717;47.792;12.076;2022-12-28T02:30:34;97009.38;;;-0.93;100.00
15229;BME280;7717;47.792;12.076;2022-12-28T02:36:07;96996.88;;;-0.75;100.00
15229;BME280;7717;47.792;12.076;2022-12-28T02:38:40;96987.25;;;-0.51;100.00
15229;BME280;7717;47.792;12.076;2022-12-28T02:41:13;96986.41;;;-0.01;100.00
15229;BME280;7717;47.792;12.076;2022-12-28T02:43:39;96975.66;;;0.20;100.00
15229;BME280;7717;47.792;12.076;2022-12-28T02:46:21;96967.44;;;0.96;100.00
15229;BME280;7717;47.792;12.076;2022-12-28T02:57:17;96963.50;;;2.22;100.00
15229;BME280;7717;47.792;12.076;2022-12-28T03:02:28;96951.13;;;2.49;100.00
15229;BME280;7717;47.792;12.076;2022-12-28T03:05:12;96945.91;;;2.44;100.00
15229;BME280;7717;47.792;12.076;2022-12-28T03:07:49;96939.34;;;2.49;100.00
15229;BME280;7717;47.792;12.076;2022-12-28T03:10:51;96938.69;;;2.76;100.00
15229;BME280;7717;47.792;12.076;2022-12-28T03:16:04;96934.94;;;2.89;100.00
15229;BME280;7717;47.792;12.076;2022-12-28T03:18:31;96939.25;;;2.92;100.00
15229;BME280;7717;47.792;12.076;2022-12-28T03:21:16;96936.50;;;2.85;100.00
15229;BME280;7717;47.792;12.076;2022-12-28T03:24:00;96937.28;;;2.83;100.00
15229;BME280;7717;47.792;12.076;2022-12-28T03:26:46;96940.97;;;2.70;100.00
15229;BME280;7717;47.792;12.076;2022-12-28T03:29:31;96943.72;;;2.54;100.00
15229;BME280;7717;47.792;12.076;2022-12-28T03:32:19;96936.47;;;2.40;100.00
15229;BME280;7717;47.792;12.076;2022-12-28T03:34:44;96933.28;;;2.44;100.00
15229;BME280;7717;47.792;12.076;2022-12-28T03:37:31;96934.34;;;2.51;100.00
15229;BME280;7717;47.792;12.076;2022-12-28T03:40:08;96924.34;;;2.75;100.00
15229;BME280;7717;47.792;12.076;2022-12-28T03:42:42;96919.72;;;2.65;100.00
15229;BME280;7717;47.792;12.076;2022-12-28T03:45:33;96910.75;;;2.73;100.00
15229;BME280;7717;47.792;12.076;2022-12-28T03:48:00;96907.47;;;2.98;100.00
15229;BME280;7717;47.792;12.076;2022-12-28T03:50:27;96894.66;;;2.94;100.00
15229;BME280;7717;47.792;12.076;2022-12-28T03:52:52;96899.25;;;3.04;100.00
15229;BME280;7717;47.792;12.076;2022-12-28T03:55:18;96887.13;;;2.95;100.00
15229;BME280;7717;47.792;12.076;2022-12-28T03:57:43;96894.78;;;2.97;100.00
15229;BME280;7717;47.792;12.076;2022-12-28T04:00:09;96893.41;;;3.05;100.00
15229;BME280;7717;47.792;12.076;2022-12-28T04:02:35;96890.53;;;2.96;100.00
15229;BME280;7717;47.792;12.076;2022-12-28T04:05:01;96887.63;;;3.09;100.00
15229;BME280;7717;47.792;12.076;2022-12-28T04:07:27;96882.19;;;2.98;100.00
15229;BME280;7717;47.792;12.076;2022-12-28T04:09:52;96889.38;;;3.10;100.00
15229;BME280;7717;47.792;12.076;2022-12-28T04:12:18;96884.75;;;3.22;100.00
15229;BME280;7717;47.792;12.076;2022-12-28T04:14:43;96872.66;;;3.15;100.00
15229;BME280;7717;47.792;12.076;2022-12-28T04:17:08;96862.59;;;3.17;100.00
15229;BME280;7717;47.792;12.076;2022-12-28T04:19:34;96859.91;;;3.12;100.00
15229;BME280;7717;47.792;12.076;2022-12-28T04:21:59;96865.81;;;3.11;100.00
15229;BME280;7717;47.792;12.076;2022-12-28T04:24:24;96867.72;;;3.18;100.00
15229;BME280;7717;47.792;12.076;2022-12-28T04:26:50;96866.94;;;3.19;100.00
15229;BME280;7717;47.792;12.076;2022-12-28T04:29:15;96859.66;;;3.29;100.00
15229;BME280;7717;47.792;12.076;2022-12-28T04:31:40;96864.56;;;3.24;100.00
15229;BME280;7717;47.792;12.076;2022-12-28T04:34:06;96861.34;;;3.30;100.00
15229;BME280;7717;47.792;12.076;2022-12-28T04:36:31;96853.88;;;3.33;100.00
15229;BME280;7717;47.792;12.076;2022-12-28T04:38:58;96858.66;;;3.23;100.00
15229;BME280;7717;47.792;12.076;2022-12-28T04:41:24;96850.13;;;3.21;100.00
15229;BME280;7717;47.792;12.076;2022-12-28T04:43:50;96850.66;;;3.37;100.00
15229;BME280;7717;47.792;12.076;2022-12-28T04:46:16;96863.09;;;3.31;100.00
15229;BME280;7717;47.792;12.076;2022-12-28T04:48:42;96845.38;;;3.31;100.00
15229;BME280;7717;47.792;12.076;2022-12-28T04:51:23;96863.44;;;3.16;100.00
15229;BME280;7717;47.792;12.076;2022-12-28T04:53:50;96858.63;;;2.99;100.00
15229;BME280;7717;47.792;12.076;2022-12-28T04:56:17;96852.63;;;2.96;100.00
15229;BME280;7717;47.792;12.076;2022-12-28T04:58:43;96854.75;;;3.09;100.00
15229;BME280;7717;47.792;12.076;2022-12-28T05:01:13;96848.00;;;3.08;100.00
15229;BME280;7717;47.792;12.076;2022-12-28T05:03:41;96848.34;;;2.95;100.00
15229;BME280;7717;47.792;12.076;2022-12-28T05:06:10;96839.34;;;3.03;100.00
15229;BME280;7717;47.792;12.076;2022-12-28T05:08:36;96845.03;;;2.96;100.00
15229;BME280;7717;47.792;12.076;2022-12-28T05:11:02;96850.34;;;3.03;100.00
15229;BME280;7717;47.792;12.076;2022-12-28T05:13:28;96841.84;;;3.01;100.00
15229;BME280;7717;47.792;12.076;2022-12-28T05:15:53;96853.91;;;3.09;100.00
15229;BME280;7717;47.792;12.076;2022-12-28T05:18:19;96836.03;;;3.04;100.00
15229;BME280;7717;47.792;12.076;2022-12-28T05:20:45;96855.41;;;3.03;100.00
15229;BME280;7717;47.792;12.076;2022-12-28T05:23:10;96840.75;;;2.95;100.00
15229;BME280;7717;47.792;12.076;2022-12-28T05:25:35;96840.25;;;2.81;100.00
15229;BME280;7717;47.792;12.076;2022-12-28T05:28:01;96853.56;;;2.75;100.00
15229;BME280;7717;47.792;12.076;2022-12-28T05:30:26;96840.81;;;2.72;100.00
15229;BME280;7717;47.792;12.076;2022-12-28T05:32:52;96829.88;;;2.73;100.00
15229;BME280;7717;47.792;12.076;2022-12-28T05:35:18;96837.06;;;2.62;100.00
15229;BME280;7717;47.792;12.076;2022-12-28T05:37:43;96835.53;;;2.66;100.00
15229;BME280;7717;47.792;12.076;2022-12-28T05:40:09;96835.53;;;2.66;100.00
15229;BME280;7717;47.792;12.076;2022-12-28T05:42:35;96836.91;;;2.58;100.00
15229;BME280;7717;47.792;12.076;2022-12-28T05:45:00;96832.59;;;2.55;100.00
15229;BME280;7717;47.792;12.076;2022-12-28T05:47:26;96826.56;;;2.51;100.00
15229;BME280;7717;47.792;12.076;2022-12-28T05:49:51;96835.25;;;2.58;100.00
15229;BME280;7717;47.792;12.076;2022-12-28T05:52:17;96832.72;;;2.58;100.00
15229;BME280;7717;47.792;12.076;2022-12-28T05:54:43;96817.22;;;2.49;100.00
15229;BME280;7717;47.792;12.076;2022-12-28T05:57:08;96832.91;;;2.63;100.00
15229;BME280;7717;47.792;12.076;2022-12-28T05:59:33;96840.94;;;2.52;100.00
15229;BME280;7717;47.792;12.076;2022-12-28T06:01:59;96828.91;;;2.69;100.00
15229;BME280;7717;47.792;12.076;2022-12-28T06:04:24;96813.34;;;2.59;100.00
15229;BME280;7717;47.792;12.076;2022-12-28T06:06:50;96815.94;;;2.84;100.00
15229;BME280;7717;47.792;12.076;2022-12-28T06:09:15;96794.53;;;2.75;100.00
15229;BME280;7717;47.792;12.076;2022-12-28T06:11:41;96808.41;;;2.86;100.00
15229;BME280;7717;47.792;12.076;2022-12-28T06:14:06;96800.84;;;2.62;100.00
15229;BME280;7717;47.792;12.076;2022-12-28T06:16:35;96816.56;;;2.77;100.00
15229;BME280;7717;47.792;12.076;2022-12-28T06:19:05;96805.47;;;2.74;100.00
15229;BME280;7717;47.792;12.076;2022-12-28T06:21:33;96811.50;;;2.77;100.00
15229;BME280;7717;47.792;12.076;2022-12-28T06:23:59;96802.41;;;2.82;100.00
15229;BME280;7717;47.792;12.076;2022-12-28T06:26:27;96808.22;;;2.80;100.00
15229;BME280;7717;47.792;12.076;2022-12-28T06:28:52;96804.41;;;2.91;100.00
15229;BME280;7717;47.792;12.076;2022-12-28T06:31:19;96805.53;;;2.99;100.00
15229;BME280;7717;47.792;12.076;2022-12-28T06:33:45;96796.25;;;3.00;100.00
15229;BME280;7717;47.792;12.076;2022-12-28T06:36:12;96809.22;;;3.09;100.00
15229;BME280;7717;47.792;12.076;2022-12-28T06:38:38;96817.47;;;3.03;100.00
15229;BME280;7717;47.792;12.076;2022-12-28T06:41:05;96826.84;;;2.82;100.00
15229;BME280;7717;47.792;12.076;2022-12-28T06:43:32;96830.66;;;2.95;100.00
15229;BME280;7717;47.792;12.076;2022-12-28T06:45:58;96822.00;;;2.88;100.00
15229;BME280;7717;47.792;12.076;2022-12-28T06:48:24;96827.00;;;2.86;100.00
15229;BME280;7717;47.792;12.076;2022-12-28T06:51:00;96821.94;;;2.86;100.00
15229;BME280;7717;47.792;12.076;2022-12-28T06:53:29;96819.63;;;2.93;100.00
15229;BME280;7717;47.792;12.076;2022-12-28T06:55:59;96809.91;;;3.03;100.00
15229;BME280;7717;47.792;12.076;2022-12-28T06:58:26;96814.91;;;3.02;100.00
15229;BME280;7717;47.792;12.076;2022-12-28T07:00:52;96818.66;;;3.13;100.00
15229;BME280;7717;47.792;12.076;2022-12-28T07:03:19;96806.75;;;3.11;100.00
15229;BME280;7717;47.792;12.076;2022-12-28T07:05:45;96830.56;;;3.16;100.00
15229;BME280;7717;47.792;12.076;2022-12-28T07:08:11;96834.31;;;3.27;100.00
15229;BME280;7717;47.792;12.076;2022-12-28T07:10:36;96828.19;;;3.20;100.00
15229;BME280;7717;47.792;12.076;2022-12-28T07:13:02;96837.94;;;3.35;100.00
15229;BME280;7717;47.792;12.076;2022-12-28T07:15:28;96832.94;;;3.37;100.00
15229;BME280;7717;47.792;12.076;2022-12-28T07:17:53;96830.31;;;3.34;100.00
15229;BME280;7717;47.792;12.076;2022-12-28T07:20:19;96831.47;;;3.43;100.00
15229;BME280;7717;47.792;12.076;2022-12-28T07:22:44;96834.88;;;3.44;100.00
15229;BME280;7717;47.792;12.076;2022-12-28T07:25:09;96840.44;;;3.34;100.00
15229;BME280;7717;47.792;12.076;2022-12-28T07:27:35;96835.69;;;3.43;100.00
15229;BME280;7717;47.792;12.076;2022-12-28T07:30:01;96824.19;;;3.27;100.00
15229;BME280;7717;47.792;12.076;2022-12-28T07:32:27;96833.69;;;3.34;100.00
15229;BME280;7717;47.792;12.076;2022-12-28T07:34:52;96826.34;;;3.42;100.00
15229;BME280;7717;47.792;12.076;2022-12-28T07:37:17;96846.50;;;3.39;100.00
15229;BME280;7717;47.792;12.076;2022-12-28T07:39:43;96843.59;;;3.52;100.00
15229;BME280;7717;47.792;12.076;2022-12-28T07:42:08;96839.31;;;3.51;100.00
15229;BME280;7717;47.792;12.076;2022-12-28T07:44:36;96832.47;;;3.47;100.00
15229;BME280;7717;47.792;12.076;2022-12-28T07:47:01;96832.47;;;3.47;100.00
15229;BME280;7717;47.792;12.076;2022-12-28T07:49:26;96834.66;;;3.64;100.00
15229;BME280;7717;47.792;12.076;2022-12-28T07:51:52;96822.75;;;3.59;100.00
15229;BME280;7717;47.792;12.076;2022-12-28T07:54:17;96813.47;;;3.60;100.00
15229;BME280;7717;47.792;12.076;2022-12-28T07:56:42;96823.47;;;3.83;100.00
15229;BME280;7717;47.792;12.076;2022-12-28T07:59:09;96832.75;;;3.82;100.00
15229;BME280;7717;47.792;12.076;2022-12-28T08:01:38;96824.47;;;4.15;100.00
15229;BME280;7717;47.792;12.076;2022-12-28T08:04:12;96827.72;;;4.11;100.00
15229;BME280;7717;47.792;12.076;2022-12-28T08:06:40;96831.50;;;4.24;100.00
15229;BME280;7717;47.792;12.076;2022-12-28T08:09:07;96831.50;;;4.24;100.00
15229;BME280;7717;47.792;12.076;2022-12-28T08:11:36;96834.31;;;4.33;100.00
15229;BME280;7717;47.792;12.076;2022-12-28T08:14:03;96832.34;;;4.53;100.00
15229;BME280;7717;47.792;12.076;2022-12-28T08:16:32;96830.16;;;4.35;100.00
15229;BME280;7717;47.792;12.076;2022-12-28T08:18:58;96827.91;;;4.44;100.00
15229;BME280;7717;47.792;12.076;2022-12-28T08:23:55;96834.41;;;4.95;100.00
15229;BME280;7717;47.792;12.076;2022-12-28T08:26:23;96827.16;;;5.09;100.00
15229;BME280;7717;47.792;12.076;2022-12-28T08:28:52;96828.84;;;4.77;100.00
15229;BME280;7717;47.792;12.076;2022-12-28T08:31:23;96815.84;;;4.96;100.00
15229;BME280;7717;47.792;12.076;2022-12-28T08:33:49;96823.41;;;4.64;100.00
15229;BME280;7717;47.792;12.076;2022-12-28T08:36:15;96817.31;;;4.59;100.00
15229;BME280;7717;47.792;12.076;2022-12-28T08:38:42;96815.09;;;4.40;100.00
15229;BME280;7717;47.792;12.076;2022-12-28T08:41:11;96820.00;;;4.64;100.00
15229;BME280;7717;47.792;12.076;2022-12-28T08:43:37;96812.34;;;4.62;100.00
15229;BME280;7717;47.792;12.076;2022-12-28T08:46:06;96821.81;;;4.98;100.00
15229;BME280;7717;47.792;12.076;2022-12-28T08:48:33;96813.13;;;4.90;100.00
15229;BME280;7717;47.792;12.076;2022-12-28T08:51:13;96816.34;;;4.83;100.00
15229;BME280;7717;47.792;12.076;2022-12-28T08:53:39;96821.00;;;4.69;100.00
15229;BME280;7717;47.792;12.076;2022-12-28T08:56:11;96825.19;;;4.97;100.00
15229;BME280;7717;47.792;12.076;2022-12-28T08:58:38;96825.94;;;4.95;100.00
15229;BME280;7717;47.792;12.076;2022-12-28T09:01:06;96831.94;;;4.98;100.00
15229;BME280;7717;47.792;12.076;2022-12-28T09:03:33;96831.53;;;5.13;100.00
15229;BME280;7717;47.792;12.076;2022-12-28T09:06:01;96822.13;;;5.11;100.00
15229;BME280;7717;47.792;12.076;2022-12-28T09:08:27;96825.03;;;5.25;100.00
15229;BME280;7717;47.792;12.076;2022-12-28T09:10:52;96824.03;;;5.18;100.00
15229;BME280;7717;47.792;12.076;2022-12-28T09:13:18;96828.63;;;5.33;100.00
15229;BME280;7717;47.792;12.076;2022-12-28T09:15:43;96825.09;;;5.26;100.00
15229;BME280;7717;47.792;12.076;2022-12-28T09:18:08;96821.06;;;5.34;100.00
15229;BME280;7717;47.792;12.076;2022-12-28T09:20:34;96812.41;;;5.26;100.00
15229;BME280;7717;47.792;12.076;2022-12-28T09:22:59;96816.00;;;5.34;100.00
15229;BME280;7717;47.792;12.076;2022-12-28T09:25:25;96811.06;;;5.40;100.00
15229;BME280;7717;47.792;12.076;2022-12-28T09:27:50;96800.59;;;5.62;100.00
15229;BME280;7717;47.792;12.076;2022-12-28T09:30:15;96810.13;;;5.70;100.00
15229;BME280;7717;47.792;12.076;2022-12-28T09:32:41;96790.88;;;5.79;100.00
15229;BME280;7717;47.792;12.076;2022-12-28T09:35:06;96780.31;;;5.98;100.00
15229;BME280;7717;47.792;12.076;2022-12-28T09:37:31;96791.88;;;6.22;100.00
15229;BME280;7717;47.792;12.076;2022-12-28T09:39:57;96777.84;;;6.39;100.00
15229;BME280;7717;47.792;12.076;2022-12-28T09:42:27;96757.94;;;7.05;100.00
15229;BME280;7717;47.792;12.076;2022-12-28T09:45:06;96739.72;;;6.83;100.00
15229;BME280;7717;47.792;12.076;2022-12-28T09:47:43;96741.31;;;6.77;100.00
15229;BME280;7717;47.792;12.076;2022-12-28T09:55:14;96728.56;;;6.75;100.00
15229;BME280;7717;47.792;12.076;2022-12-28T09:57:46;96740.78;;;6.51;100.00
15229;BME280;7717;47.792;12.076;2022-12-28T10:00:17;96716.13;;;7.39;100.00
15229;BME280;7717;47.792;12.076;2022-12-28T10:02:42;96690.84;;;8.13;100.00
15229;BME280;7717;47.792;12.076;2022-12-28T10:05:10;96672.47;;;8.39;100.00
15229;BME280;7717;47.792;12.076;2022-12-28T10:07:36;96682.56;;;7.67;100.00
15229;BME280;7717;47.792;12.076;2022-12-28T10:10:02;96709.69;;;7.11;100.00
15229;BME280;7717;47.792;12.076;2022-12-28T10:12:28;96683.50;;;7.75;100.00
15229;BME280;7717;47.792;12.076;2022-12-28T10:14:54;96672.09;;;8.11;100.00
15229;BME280;7717;47.792;12.076;2022-12-28T10:17:21;96648.78;;;8.48;100.00
15229;BME280;7717;47.792;12.076;2022-12-28T10:19:50;96640.19;;;8.41;100.00
15229;BME280;7717;47.792;12.076;2022-12-28T10:22:19;96659.34;;;8.06;100.00
15229;BME280;7717;47.792;12.076;2022-12-28T10:24:46;96652.88;;;8.35;100.00
15229;BME280;7717;47.792;12.076;2022-12-28T10:27:21;96665.88;;;7.89;100.00
15229;BME280;7717;47.792;12.076;2022-12-28T10:29:47;96682.19;;;7.44;100.00
15229;BME280;7717;47.792;12.076;2022-12-28T10:32:14;96666.75;;;7.33;100.00
15229;BME280;7717;47.792;12.076;2022-12-28T10:35:09;96677.06;;;7.41;100.00
15229;BME280;7717;47.792;12.076;2022-12-28T10:37:45;96655.66;;;7.28;100.00
15229;BME280;7717;47.792;12.076;2022-12-28T10:40:24;96646.44;;;7.36;100.00
15229;BME280;7717;47.792;12.076;2022-12-28T10:42:53;96658.13;;;7.81;100.00
15229;BME280;7717;47.792;12.076;2022-12-28T10:45:25;96639.97;;;7.56;100.00
15229;BME280;7717;47.792;12.076;2022-12-28T10:47:54;96649.69;;;7.85;100.00
15229;BME280;7717;47.792;12.076;2022-12-28T10:50:54;96642.91;;;7.87;100.00
15229;BME280;7717;47.792;12.076;2022-12-28T10:56:00;96633.31;;;7.66;100.00
15229;BME280;7717;47.792;12.076;2022-12-28T10:58:25;96612.09;;;8.38;100.00
15229;BME280;7717;47.792;12.076;2022-12-28T11:00:55;96619.78;;;7.72;100.00
15229;BME280;7717;47.792;12.076;2022-12-28T11:03:30;96624.59;;;6.97;100.00
15229;BME280;7717;47.792;12.076;2022-12-28T11:06:06;96623.06;;;7.63;100.00
15229;BME280;7717;47.792;12.076;2022-12-28T11:08:32;96610.81;;;7.99;100.00
15229;BME280;7717;47.792;12.076;2022-12-28T11:10:57;96571.72;;;8.81;100.00
15229;BME280;7717;47.792;12.076;2022-12-28T11:13:23;96584.38;;;8.72;100.00
15229;BME280;7717;47.792;12.076;2022-12-28T11:15:48;96597.06;;;8.62;100.00
15229;BME280;7717;47.792;12.076;2022-12-28T11:18:14;96576.75;;;10.15;100.00
15229;BME280;7717;47.792;12.076;2022-12-28T11:20:43;96583.34;;;8.53;100.00
15229;BME280;7717;47.792;12.076;2022-12-28T11:23:15;96579.44;;;8.06;100.00
15229;BME280;7717;47.792;12.076;2022-12-28T11:25:42;96588.97;;;9.11;100.00
15229;BME280;7717;47.792;12.076;2022-12-28T11:28:11;96588.16;;;8.28;100.00
15229;BME280;7717;47.792;12.076;2022-12-28T11:30:37;96594.09;;;8.24;100.00
15229;BME280;7717;47.792;12.076;2022-12-28T11:33:03;96592.91;;;7.96;100.00
15229;BME280;7717;47.792;12.076;2022-12-28T11:35:36;96603.31;;;7.48;100.00
15229;BME280;7717;47.792;12.076;2022-12-28T11:38:03;96607.56;;;7.48;100.00
15229;BME280;7717;47.792;12.076;2022-12-28T11:45:57;96581.63;;;7.77;100.00
15229;BME280;7717;47.792;12.076;2022-12-28T11:48:44;96589.22;;;7.12;100.00
15229;BME280;7717;47.792;12.076;2022-12-28T11:51:15;96580.66;;;7.68;100.00
15229;BME280;7717;47.792;12.076;2022-12-28T11:56:10;96539.34;;;8.75;100.00
15229;BME280;7717;47.792;12.076;2022-12-28T12:01:04;96530.47;;;8.36;100.00
15229;BME280;7717;47.792;12.076;2022-12-28T12:06:16;96547.50;;;8.40;100.00
15229;BME280;7717;47.792;12.076;2022-12-28T12:08:41;96525.81;;;8.86;98.90
15229;BME280;7717;47.792;12.076;2022-12-28T12:11:19;96504.69;;;9.07;96.84
15229;BME280;7717;47.792;12.076;2022-12-28T12:13:46;96531.31;;;9.49;99.19
15229;BME280;7717;47.792;12.076;2022-12-28T12:18:50;96540.97;;;8.67;99.47
15229;BME280;7717;47.792;12.076;2022-12-28T12:21:27;96530.75;;;8.65;99.52
15229;BME280;7717;47.792;12.076;2022-12-28T12:23:54;96522.88;;;9.70;99.63
15229;BME280;7717;47.792;12.076;2022-12-28T12:28:46;96493.28;;;10.80;95.92
15229;BME280;7717;47.792;12.076;2022-12-28T12:31:29;96460.03;;;10.57;93.28
15229;BME280;7717;47.792;12.076;2022-12-28T12:34:02;96442.09;;;10.38;91.22
15229;BME280;7717;47.792;12.076;2022-12-28T12:36:59;96477.84;;;10.07;93.71
15229;BME280;7717;47.792;12.076;2022-12-28T12:39:39;96455.75;;;10.67;92.05
15229;BME280;7717;47.792;12.076;2022-12-28T12:42:48;96406.25;;;10.74;89.15
15229;BME280;7717;47.792;12.076;2022-12-28T12:45:50;96442.09;;;10.72;90.93
15229;BME280;7717;47.792;12.076;2022-12-28T12:56:58;96432.22;;;13.05;88.51
15229;BME280;7717;47.792;12.076;2022-12-28T13:04:36;96461.22;;;12.15;89.49
15229;BME280;7717;47.792;12.076;2022-12-28T13:07:04;96429.03;;;12.83;88.37
15229;BME280;7717;47.792;12.076;2022-12-28T13:09:31;96365.72;;;11.68;83.52
15229;BME280;7717;47.792;12.076;2022-12-28T13:11:59;96453.56;;;12.09;89.70
15229;BME280;7717;47.792;12.076;2022-12-28T13:14:25;96365.31;;;10.63;84.20
15229;BME280;7717;47.792;12.076;2022-12-28T13:16:51;96462.44;;;9.90;89.66
15229;BME280;7717;47.792;12.076;2022-12-28T13:19:19;96450.56;;;10.26;89.67
15229;BME280;7717;47.792;12.076;2022-12-28T13:21:46;96424.19;;;10.34;88.51
15229;BME280;7717;47.792;12.076;2022-12-28T13:24:17;96382.19;;;11.23;86.80
15229;BME280;7717;47.792;12.076;2022-12-28T13:26:42;96381.81;;;11.97;87.42
15229;BME280;7717;47.792;12.076;2022-12-28T13:29:08;96347.63;;;11.90;84.22
15229;BME280;7717;47.792;12.076;2022-12-28T13:34:00;96416.03;;;11.99;88.52
15229;BME280;7717;47.792;12.076;2022-12-28T13:36:25;96414.03;;;12.38;88.36
15229;BME280;7717;47.792;12.076;2022-12-28T13:39:04;96382.91;;;13.49;87.66
15229;BME280;7717;47.792;12.076;2022-12-28T13:41:30;96291.69;;;12.35;80.30
15229;BME280;7717;47.792;12.076;2022-12-28T13:44:13;96348.16;;;12.35;83.53
15229;BME280;7717;47.792;12.076;2022-12-28T13:46:43;96447.13;;;11.15;89.72
15229;BME280;7717;47.792;12.076;2022-12-28T13:49:09;96464.19;;;10.02;90.04
15229;BME280;7717;47.792;12.076;2022-12-28T13:51:36;96446.34;;;10.61;89.72
15229;BME280;7717;47.792;12.076;2022-12-28T13:54:03;96465.63;;;9.26;90.62
15229;BME280;7717;47.792;12.076;2022-12-28T13:56:29;96479.16;;;9.08;92.61
15229;BME280;7717;47.792;12.076;2022-12-28T13:58:57;96441.97;;;9.78;91.43
15229;BME280;7717;47.792;12.076;2022-12-28T14:01:26;96417.97;;;9.25;89.24
15229;BME280;7717;47.792;12.076;2022-12-28T14:04:00;96434.56;;;8.55;90.63
15229;BME280;7717;47.792;12.076;2022-12-28T14:06:27;96455.41;;;8.09;92.81
15229;BME280;7717;47.792;12.076;2022-12-28T14:08:53;96464.84;;;8.18;95.34
15229;BME280;7717;47.792;12.076;2022-12-28T14:11:18;96463.84;;;8.04;96.20